Share

Wellsville, MO (63384)

4:58 AM CDT on April 25, 2014 (GMT -0500)
ALSAT Wireless (KMOMONTG3) Elev 810 ft | 38.99 °N, 91.55 °W | Change Station

Current weather conditions updated 3 seconds ago

Clear
Clear
48.4 °F
Feels Like 47 °F
N
4.0
Wind Variable Wind from NNW
Gusts 7.0 mph
Sunrise 6:15 AM
Sunset 7:53 PM
Moon Waning Crescent

Today is forecast to be nearly the same temperature as yesterday.

Pressure 29.87 in
Visibility 10.0 miles
Clouds Clear
Windchill 47 °F
Dew Point 46 °F
Humidity 91%
Rainfall 0.00 in
Snow Depth Not available.
UV 0 out of 16
Pollen 4.90 out of 12
Air Quality Not available.
Flu Activity Sporadic
METAR KCOU 250954Z AUTO 29007KT 10SM CLR 08/07 A2987 RMK AO2 SLP114 T00830067

More Conditions Fewer Conditions

Pressure 29.87 in
Visibility 10.0 miles
Clouds Clear
Windchill 47 °F
Dew Point 46 °F
Humidity 91%
Rainfall 0.00 in
Snow Depth Not available.
UV 0 out of 16
Pollen 4.90 out of 12
Air Quality Not available.
Flu Activity Sporadic
METAR KCOU 250954Z AUTO 29007KT 10SM CLR 08/07 A2987 RMK AO2 SLP114 T00830067

More Conditions Fewer Conditions

10-Day Weather Forecast

Almanac

Astronomy

Apr. 25, 2014 Rise Set
Actual Time 6:15 AM CDT 7:53 PM CDT
Civil Twilight 5:47 AM CDT 8:21 PM CDT
Nautical Twilight 5:13 AM CDT 8:56 PM CDT
Astronomical Twilight 4:36 AM CDT 9:32 PM CDT
Moon 4:02 AM CDT 4:17 PM CDT
Length of Visible Light 14h 34m
Length of Day
13h 37m
Tomorrow will be 2m 17s longer.
Waning Crescent, 17% of the Moon is Illuminated
Today
Waning Crescent
Apr 29
New
May 6
First Quarter
May 14
Full
May 21
Last Quarter

Today's Extremes

State Highs State Lows

Community

  • Storm Clouds & Sunset
    Storm Clouds & Sunset
  • Deer in evening light
    Deer in evening light
  • Critter
    Critter
  • Jone Runs Falls
    Jone Runs Falls
  • Easter in Shenandoah National Park
    Easter in Shenandoah National Park

WunderPhotos

Upload Photos

1,704,876 photos uploaded!

WunderBlogs® & News

Nearby

Snow Depth

Station Depth Elevation
No new snow has been reported.

Coastal Water Temperatures

Place Temperature
No Stations Reporting

Earthquake Activity

City Distance Mag. Time & Date
No recent earthquake activity has been reported nearby.
Minimum magnitude displayed is 2.5.

Nearby Weather Stations

Station Location Temp. Windchill Dew Point Humidity Wind Precip. Elev Updated Type
ALSAT Wireless, Montgomery City, MO 48.4 °F 47 °F 46 °F 91% NNW  at  4.0 mph 0.00 in / hr 810 ft 4:58 AM CDT Rapid Fire
Mexico, MO 49.1 °F 49 °F 46 °F 88% WNW  at  0.0 mph 0.00 in / hr 778 ft 4:52 AM CDT Normal
BIG SPRING, MO 47.6 °F 48 °F 45 °F 91% NW  at  1.0 mph 0.00 in / hr 553 ft 4:50 AM CDT Normal
YMCA, Fulton, MO 46.8 °F 47 °F 44 °F 91% WNW  at  3.0 mph 0.00 in / hr 853 ft 4:50 AM CDT Normal

Show More Stations Show Fewer Stations

What do you think?

We're not finished. Please let us know what you like, what you don't like, and what you are still missing.